Time;durP1;ratioP1;P1;durP2;ratioP2;P2;SDS_P1;SDS_P2;PMS_P1;PMS_P2;Temp;Humidity;BMP_temperature;BMP_pressure;BME280_temperature;BME280_humidity;BME280_pressure;Samples;Min_cycle;Max_cycle;Signal;HPM_P1;HPM_P2
2022/09/12 00:02:22;;;;;;;4.78;2.65;;;20.30;82.90;;;;;;6149812;23;20320;-79
2022/09/12 00:04:48;;;;;;;4.03;2.55;;;20.30;82.90;;;;;;6150163;23;20064;-80
2022/09/12 00:07:13;;;;;;;5.13;2.92;;;20.30;83.00;;;;;;6150140;23;20012;-79
2022/09/12 00:09:39;;;;;;;4.25;2.80;;;20.30;83.00;;;;;;6148882;23;20016;-80
2022/09/12 00:12:05;;;;;;;5.40;2.92;;;20.30;83.10;;;;;;6150384;23;20029;-81
2022/09/12 00:14:30;;;;;;;4.05;2.60;;;20.30;83.10;;;;;;6151455;23;20033;-80
2022/09/12 00:16:58;;;;;;;5.30;3.00;;;20.30;83.10;;;;;;6151748;23;20059;-80
2022/09/12 00:19:24;;;;;;;5.28;2.85;;;20.30;83.00;;;;;;6153629;23;20008;-79
2022/09/12 00:21:49;;;;;;;3.95;2.55;;;20.30;83.00;;;;;;6153310;23;20001;-80
2022/09/12 00:24:15;;;;;;;4.15;2.60;;;20.30;83.00;;;;;;6152161;23;20089;-80
2022/09/12 00:26:40;;;;;;;3.78;2.50;;;20.30;82.90;;;;;;6156587;23;20005;-80
2022/09/12 00:29:06;;;;;;;5.20;2.90;;;20.30;82.80;;;;;;6155812;23;20008;-80
2022/09/12 00:31:31;;;;;;;4.15;2.65;;;20.30;82.70;;;;;;6181900;23;20033;-79
2022/09/12 00:34:00;;;;;;;3.83;2.40;;;20.30;82.70;;;;;;6181409;23;20013;-79
2022/09/12 00:36:26;;;;;;;3.97;2.42;;;20.30;82.60;;;;;;6154348;23;20084;-80
2022/09/12 00:38:53;;;;;;;4.15;2.70;;;20.30;82.80;;;;;;6154242;23;20553;-80
2022/09/12 00:41:25;;;;;;;4.57;2.70;;;20.30;82.80;;;;;;6155876;23;20012;-80
2022/09/12 00:43:54;;;;;;;4.03;2.75;;;20.30;82.90;;;;;;6180699;23;20019;-80
2022/09/12 00:46:47;;;;;;;4.65;2.53;;;20.30;82.90;;;;;;6154331;23;20013;-80
2022/09/12 00:49:35;;;;;;;4.25;2.72;;;20.30;83.00;;;;;;6153540;23;20653;-80
2022/09/12 00:52:13;;;;;;;4.18;2.67;;;20.30;83.00;;;;;;6093041;23;20001;-79
2022/09/12 00:54:57;;;;;;;5.57;3.10;;;20.30;83.10;;;;;;6154141;23;20009;-79
2022/09/12 00:57:28;;;;;;;4.90;3.15;;;20.30;83.10;;;;;;6154630;23;20015;-79
2022/09/12 01:00:12;;;;;;;4.90;2.85;;;20.20;83.10;;;;;;6180413;23;20027;-80
2022/09/12 01:02:38;;;;;;;4.35;2.63;;;20.20;83.10;;;;;;6153797;23;20020;-79
2022/09/12 01:05:06;;;;;;;5.40;3.08;;;20.20;83.10;;;;;;6180202;23;20009;-79
2022/09/12 01:07:34;;;;;;;4.35;2.50;;;20.30;83.20;;;;;;6179920;23;20009;-79
2022/09/12 01:10:00;;;;;;;4.18;2.70;;;20.30;83.20;;;;;;6153570;23;20075;-79
2022/09/12 01:12:26;;;;;;;5.18;2.60;;;20.30;83.10;;;;;;6152995;23;20537;-79
2022/09/12 01:14:51;;;;;;;4.78;2.72;;;20.30;83.00;;;;;;6154436;23;20005;-79
2022/09/12 01:17:17;;;;;;;4.25;2.58;;;20.30;82.90;;;;;;6180946;23;20008;-81
2022/09/12 01:20:19;;;;;;;4.97;2.92;;;20.30;82.80;;;;;;6153420;23;20008;-79
2022/09/12 01:23:14;;;;;;;5.20;2.80;;;20.30;82.80;;;;;;6178911;23;20120;-80
2022/09/12 01:25:58;;;;;;;5.07;3.00;;;20.30;82.80;;;;;;6148427;23;20017;-80
2022/09/12 01:28:53;;;;;;;4.57;2.90;;;20.30;82.90;;;;;;6148758;23;20689;-80
2022/09/12 01:31:54;;;;;;;4.78;3.05;;;20.30;82.90;;;;;;6144810;23;20016;-81
2022/09/12 01:34:42;;;;;;;5.10;2.90;;;20.20;83.00;;;;;;6150082;23;20001;-80
2022/09/12 01:37:24;;;;;;;5.07;2.88;;;20.20;83.00;;;;;;6155434;23;20005;-82
2022/09/12 01:40:02;;;;;;;5.10;2.90;;;20.20;83.10;;;;;;6156360;23;20001;-80
2022/09/12 01:42:33;;;;;;;4.22;2.80;;;20.20;83.10;;;;;;6155384;23;20012;-81
2022/09/12 01:45:12;;;;;;;4.32;2.80;;;20.20;83.20;;;;;;6156054;23;20442;-82
2022/09/12 01:47:49;;;;;;;4.20;2.50;;;20.20;83.20;;;;;;6159479;23;20005;-81
2022/09/12 01:50:27;;;;;;;4.50;2.88;;;20.20;83.30;;;;;;6176301;23;20434;-79
2022/09/12 01:53:21;;;;;;;4.45;2.80;;;20.20;83.30;;;;;;6153573;23;20037;-81
2022/09/12 01:55:55;;;;;;;4.43;2.65;;;20.20;83.30;;;;;;6154868;23;20013;-81
2022/09/12 01:58:27;;;;;;;4.85;2.70;;;20.20;83.30;;;;;;6156702;23;20021;-80
2022/09/12 02:01:06;;;;;;;4.82;2.78;;;20.20;83.20;;;;;;6154151;23;20055;-81
2022/09/12 02:03:47;;;;;;;4.40;2.70;;;20.30;83.20;;;;;;6155568;23;20076;-80
2022/09/12 02:06:24;;;;;;;4.88;3.00;;;20.30;83.10;;;;;;6178397;23;20514;-80
2022/09/12 02:09:08;;;;;;;5.18;2.60;;;20.30;83.00;;;;;;6155705;23;20089;-79
2022/09/12 02:11:39;;;;;;;4.03;2.65;;;20.30;83.00;;;;;;6153012;23;20401;-81
2022/09/12 02:14:20;;;;;;;4.60;2.58;;;20.30;83.00;;;;;;6178180;23;20462;-80
2022/09/12 02:16:51;;;;;;;4.00;2.65;;;20.30;83.00;;;;;;6178271;23;20002;-79
2022/09/12 02:19:22;;;;;;;4.30;2.70;;;20.20;83.00;;;;;;6153050;23;20012;-80
2022/09/12 02:21:54;;;;;;;3.95;2.42;;;20.20;83.00;;;;;;6151107;23;19998;-81
2022/09/12 02:24:23;;;;;;;5.05;2.80;;;20.20;83.10;;;;;;6155400;23;20012;-79
2022/09/12 02:27:02;;;;;;;4.13;2.55;;;20.20;83.10;;;;;;6183988;23;20043;-79
2022/09/12 02:29:29;;;;;;;4.68;2.78;;;20.20;83.20;;;;;;6180662;23;20005;-80
2022/09/12 02:32:02;;;;;;;3.90;2.50;;;20.20;83.20;;;;;;6180117;23;20001;-80
2022/09/12 02:34:45;;;;;;;4.78;2.92;;;20.20;83.30;;;;;;6155649;23;20331;-79
2022/09/12 02:37:24;;;;;;;4.55;2.72;;;20.20;83.30;;;;;;6156624;23;20012;-79
2022/09/12 02:39:54;;;;;;;3.95;2.70;;;20.20;83.40;;;;;;6156911;23;20013;-80
2022/09/12 02:42:21;;;;;;;4.15;2.63;;;20.20;83.40;;;;;;6156883;23;20012;-79
2022/09/12 02:44:47;;;;;;;4.28;2.70;;;20.20;83.40;;;;;;6155952;23;20012;-79
2022/09/12 02:47:51;;;;;;;3.80;2.50;;;20.20;83.40;;;;;;6156148;23;20457;-80
2022/09/12 02:50:18;;;;;;;5.00;2.80;;;20.20;83.30;;;;;;6130987;23;20135;-81
2022/09/12 02:52:44;;;;;;;4.50;2.70;;;20.10;83.10;;;;;;6180926;23;20008;-81
2022/09/12 02:55:10;;;;;;;4.93;2.67;;;20.20;83.10;;;;;;6161217;23;19997;-80
2022/09/12 02:57:36;;;;;;;4.85;2.75;;;20.20;83.00;;;;;;6159852;23;20005;-82
2022/09/12 03:00:03;;;;;;;4.75;2.83;;;20.20;83.00;;;;;;6185388;23;20008;-81
2022/09/12 03:02:49;;;;;;;4.30;2.53;;;20.30;83.10;;;;;;6158524;23;20009;-80
2022/09/12 03:05:35;;;;;;;4.53;2.75;;;20.20;83.00;;;;;;6184966;23;20005;-79
2022/09/12 03:08:12;;;;;;;4.18;2.63;;;20.20;83.10;;;;;;6157619;23;20005;-80
2022/09/12 03:10:49;;;;;;;4.18;2.60;;;20.20;83.10;;;;;;6184342;23;20004;-81
2022/09/12 03:13:48;;;;;;;4.45;2.95;;;20.20;83.20;;;;;;6157515;23;20005;-80
2022/09/12 03:16:27;;;;;;;4.45;2.70;;;20.20;83.20;;;;;;6158533;23;20059;-81
2022/09/12 03:19:23;;;;;;;4.32;2.70;;;20.20;83.30;;;;;;6156723;23;20001;-79
2022/09/12 03:22:03;;;;;;;4.25;2.67;;;20.10;83.20;;;;;;6182691;23;20050;-80
2022/09/12 03:24:36;;;;;;;4.68;2.70;;;20.20;83.40;;;;;;6183002;23;20009;-81
2022/09/12 03:27:19;;;;;;;4.35;2.65;;;20.20;83.40;;;;;;6182772;23;20001;-80
2022/09/12 03:29:47;;;;;;;4.20;2.60;;;20.20;83.40;;;;;;6183378;23;20477;-80
2022/09/12 03:32:13;;;;;;;4.07;2.60;;;20.20;83.40;;;;;;6182309;23;20005;-79
2022/09/12 03:34:38;;;;;;;4.47;2.60;;;20.10;83.40;;;;;;6156148;23;20047;-79
2022/09/12 03:37:04;;;;;;;4.22;2.60;;;20.20;83.40;;;;;;6182566;23;20005;-78
2022/09/12 03:39:30;;;;;;;4.57;2.60;;;20.20;83.40;;;;;;6157105;23;20005;-80
2022/09/12 03:41:56;;;;;;;4.40;2.65;;;20.20;83.30;;;;;;6182164;23;20093;-80
2022/09/12 03:44:22;;;;;;;4.00;2.58;;;20.20;83.20;;;;;;6182916;23;20056;-81
2022/09/12 03:46:48;;;;;;;4.15;2.40;;;20.20;83.10;;;;;;6156144;23;20009;-79
2022/09/12 03:49:13;;;;;;;4.68;2.50;;;20.20;83.10;;;;;;6182682;23;20390;-81
2022/09/12 03:51:39;;;;;;;4.43;2.70;;;20.20;83.10;;;;;;6182739;23;20016;-80
2022/09/12 03:54:05;;;;;;;4.72;2.90;;;20.20;83.10;;;;;;6155975;23;20028;-80
2022/09/12 03:56:31;;;;;;;4.60;2.70;;;20.20;83.10;;;;;;6182283;23;20428;-80
2022/09/12 03:58:56;;;;;;;4.15;2.53;;;20.20;83.20;;;;;;6153636;23;20012;-79
2022/09/12 04:01:23;;;;;;;3.97;2.42;;;20.20;83.20;;;;;;6184702;23;20482;-79
2022/09/12 04:03:50;;;;;;;4.55;2.63;;;20.20;83.30;;;;;;6157130;23;20397;-79
2022/09/12 04:06:19;;;;;;;4.57;2.60;;;20.20;83.30;;;;;;6183019;23;20438;-79
2022/09/12 04:08:50;;;;;;;3.78;2.33;;;20.20;83.90;;;;;;6158581;23;20004;-79
2022/09/12 04:11:16;;;;;;;3.80;2.53;;;20.20;83.40;;;;;;6186137;23;20005;-79
2022/09/12 04:13:44;;;;;;;3.97;2.60;;;20.10;83.40;;;;;;6186651;23;20005;-79
2022/09/12 04:16:10;;;;;;;4.20;2.60;;;20.10;83.50;;;;;;6182509;23;20001;-79
2022/09/12 04:18:36;;;;;;;4.13;2.63;;;20.10;83.50;;;;;;6183348;23;20001;-79
2022/09/12 04:21:06;;;;;;;4.20;2.70;;;20.10;83.50;;;;;;6157102;23;20446;-77
2022/09/12 04:23:32;;;;;;;4.20;2.65;;;20.10;83.50;;;;;;6180915;23;20031;-79
2022/09/12 04:26:00;;;;;;;3.80;2.50;;;20.10;83.40;;;;;;6184215;23;20021;-79
2022/09/12 04:28:31;;;;;;;4.18;2.53;;;20.10;83.40;;;;;;6183438;23;20016;-78
2022/09/12 04:31:26;;;;;;;4.03;2.50;;;20.10;83.30;;;;;;6157173;23;20059;-80
2022/09/12 04:33:54;;;;;;;3.58;2.28;;;20.20;83.30;;;;;;6178567;23;20008;-79
2022/09/12 04:36:19;;;;;;;4.57;2.90;;;20.20;83.20;;;;;;6158162;23;20009;-79
2022/09/12 04:38:46;;;;;;;3.40;2.30;;;20.20;83.20;;;;;;6183452;23;20028;-79
2022/09/12 04:41:16;;;;;;;4.22;2.40;;;20.20;83.10;;;;;;6184214;23;20438;-81
2022/09/12 04:43:45;;;;;;;4.50;2.55;;;20.20;83.10;;;;;;6182409;23;20085;-78
2022/09/12 04:46:11;;;;;;;4.18;2.60;;;20.20;83.10;;;;;;6185405;23;20004;-78
2022/09/12 04:48:37;;;;;;;3.92;2.45;;;20.20;83.20;;;;;;6182001;23;20001;-79
2022/09/12 04:51:19;;;;;;;3.97;2.60;;;20.20;83.20;;;;;;6156223;23;20407;-78
2022/09/12 05:10:39;;;;;;;4.72;2.65;;;20.10;83.50;;;;;;6191203;22;20132;-79
2022/09/12 05:13:04;;;;;;;;;;;20.10;83.50;;;;;;6206087;23;20008;-77
2022/09/12 05:15:29;;;;;;;3.95;2.47;;;20.10;83.50;;;;;;6182557;23;19903;-77
2022/09/12 05:17:55;;;;;;;4.70;2.60;;;20.10;83.50;;;;;;6182508;23;20088;-75
2022/09/12 05:20:20;;;;;;;3.95;2.45;;;20.10;83.50;;;;;;6181631;23;20040;-78
2022/09/12 05:22:46;;;;;;;3.42;2.30;;;20.10;83.40;;;;;;6182614;23;20539;-75
2022/09/12 05:25:11;;;;;;;4.18;2.38;;;20.10;83.20;;;;;;6207491;23;20011;-75
2022/09/12 05:27:37;;;;;;;3.95;2.38;;;20.20;83.20;;;;;;6180800;23;20027;-77
2022/09/12 05:30:03;;;;;;;4.60;2.60;;;20.20;83.10;;;;;;6206602;23;20009;-75
2022/09/12 05:32:31;;;;;;;4.22;2.55;;;20.20;83.00;;;;;;6207129;23;20064;-76
2022/09/12 05:34:56;;;;;;;4.43;2.70;;;20.20;83.00;;;;;;6181255;23;20004;-76
2022/09/12 05:37:22;;;;;;;4.13;2.60;;;20.20;83.00;;;;;;6180958;23;20429;-75
2022/09/12 05:39:48;;;;;;;4.50;2.65;;;20.20;83.00;;;;;;6182464;23;20035;-77
2022/09/12 05:42:13;;;;;;;4.05;2.50;;;20.20;83.00;;;;;;6181812;23;20001;-77
2022/09/12 05:44:39;;;;;;;4.25;2.50;;;20.20;83.00;;;;;;6181753;23;20016;-77
2022/09/12 05:47:04;;;;;;;4.40;2.70;;;20.20;83.00;;;;;;6182011;23;20050;-75
2022/09/12 05:49:30;;;;;;;4.55;2.78;;;20.20;83.00;;;;;;6181115;23;20032;-75
2022/09/12 05:51:55;;;;;;;4.70;2.50;;;20.20;83.00;;;;;;6182048;23;20032;-79
2022/09/12 05:54:21;;;;;;;4.07;2.67;;;20.20;82.90;;;;;;6184904;23;20094;-78
2022/09/12 05:56:47;;;;;;;4.25;2.80;;;20.20;82.90;;;;;;6185388;23;20004;-78
2022/09/12 05:59:19;;;;;;;4.57;2.60;;;20.20;82.80;;;;;;6181628;23;20024;-74
2022/09/12 06:01:45;;;;;;;4.15;2.53;;;20.20;82.80;;;;;;6207144;23;20035;-75
2022/09/12 06:04:11;;;;;;;3.88;2.40;;;20.30;82.70;;;;;;6181048;23;20417;-76
2022/09/12 06:06:43;;;;;;;4.13;2.60;;;20.30;82.70;;;;;;6207673;23;20058;-76
2022/09/12 06:09:10;;;;;;;3.97;2.45;;;20.30;82.60;;;;;;6179134;23;20013;-74
2022/09/12 06:11:39;;;;;;;4.90;2.85;;;20.30;82.50;;;;;;6179760;23;20008;-76
2022/09/12 06:14:06;;;;;;;4.28;2.50;;;20.30;82.40;;;;;;6205527;23;20000;-74
2022/09/12 06:16:33;;;;;;;4.05;2.63;;;20.40;82.30;;;;;;6181518;23;20004;-76
2022/09/12 06:19:02;;;;;;;4.25;2.60;;;20.50;82.10;;;;;;6207075;23;20008;-75
2022/09/12 06:21:30;;;;;;;4.63;2.30;;;20.50;81.90;;;;;;6207554;23;20004;-75
2022/09/12 06:23:59;;;;;;;4.15;2.58;;;20.40;81.80;;;;;;6181248;23;20074;-73
2022/09/12 06:26:26;;;;;;;3.97;2.42;;;20.50;81.70;;;;;;6181168;23;20296;-74
2022/09/12 06:28:54;;;;;;;4.25;2.47;;;20.40;81.60;;;;;;6181181;23;20413;-75
2022/09/12 06:31:24;;;;;;;4.18;2.45;;;20.50;81.60;;;;;;6208261;23;20054;-75
2022/09/12 06:33:52;;;;;;;4.82;2.75;;;20.50;81.60;;;;;;6182276;23;20078;-76
2022/09/12 06:36:21;;;;;;;4.20;2.45;;;20.50;81.60;;;;;;6181645;23;20012;-75
2022/09/12 06:38:49;;;;;;;4.00;2.60;;;20.50;81.50;;;;;;6207751;23;20001;-75
2022/09/12 06:41:15;;;;;;;3.83;2.20;;;20.50;81.50;;;;;;6208263;23;20008;-75
2022/09/12 06:43:41;;;;;;;3.58;2.30;;;20.50;81.50;;;;;;6208473;23;20334;-76
2022/09/12 06:46:08;;;;;;;4.00;2.45;;;20.50;81.40;;;;;;6182265;23;20341;-75
2022/09/12 06:48:33;;;;;;;4.25;2.50;;;20.50;81.30;;;;;;6182096;23;20009;-75
2022/09/12 06:51:01;;;;;;;4.00;2.40;;;20.50;81.20;;;;;;6205976;23;20014;-75
2022/09/12 06:53:29;;;;;;;3.60;2.30;;;20.60;81.20;;;;;;6206440;23;20012;-74
2022/09/12 06:55:56;;;;;;;4.30;2.75;;;20.60;81.10;;;;;;6206577;23;20735;-76
2022/09/12 06:58:21;;;;;;;4.20;2.70;;;20.60;81.00;;;;;;6179985;23;20016;-75
2022/09/12 07:00:47;;;;;;;3.65;2.42;;;20.70;81.00;;;;;;6180501;23;20013;-76
2022/09/12 07:03:12;;;;;;;3.65;2.30;;;20.70;80.80;;;;;;6181565;23;20421;-76
2022/09/12 07:05:38;;;;;;;4.13;2.60;;;20.70;80.70;;;;;;6208051;23;20013;-76
2022/09/12 07:08:03;;;;;;;3.83;2.40;;;20.80;80.50;;;;;;6179507;23;20041;-76
2022/09/12 07:10:30;;;;;;;3.72;2.40;;;20.90;80.30;;;;;;6179671;23;20796;-76
2022/09/12 07:12:55;;;;;;;4.53;2.60;;;20.90;80.10;;;;;;6206838;23;20138;-76
2022/09/12 07:15:20;;;;;;;4.10;2.45;;;20.90;80.00;;;;;;6207307;23;20382;-75
2022/09/12 07:17:46;;;;;;;4.85;2.95;;;20.90;79.90;;;;;;6207123;23;20005;-76
2022/09/12 07:20:11;;;;;;;3.90;2.50;;;20.90;79.90;;;;;;6179778;23;20090;-75
2022/09/12 07:22:37;;;;;;;4.80;2.75;;;20.90;79.90;;;;;;6208361;23;20421;-76
2022/09/12 07:25:03;;;;;;;3.88;2.40;;;20.90;80.00;;;;;;6177680;23;20420;-77
2022/09/12 07:27:29;;;;;;;4.15;2.60;;;20.90;80.00;;;;;;6179606;23;20014;-76
2022/09/12 07:29:55;;;;;;;4.00;2.65;;;20.90;80.00;;;;;;6179820;23;20101;-76
2022/09/12 07:32:21;;;;;;;4.32;2.58;;;20.90;79.90;;;;;;6179846;23;20001;-75
2022/09/12 07:34:48;;;;;;;4.50;2.58;;;20.90;79.90;;;;;;6180472;23;19997;-76
2022/09/12 07:37:14;;;;;;;6.13;3.08;;;20.90;79.90;;;;;;6206733;23;20011;-77
2022/09/12 07:39:39;;;;;;;3.92;2.60;;;20.90;79.80;;;;;;6180419;23;20452;-75
2022/09/12 07:42:05;;;;;;;6.40;2.90;;;20.90;79.70;;;;;;6180366;23;20342;-76
2022/09/12 07:44:31;;;;;;;5.35;2.75;;;21.00;79.60;;;;;;6207403;23;20024;-75
2022/09/12 07:46:57;;;;;;;5.20;2.67;;;21.00;79.60;;;;;;6180692;23;20036;-75
2022/09/12 07:49:22;;;;;;;6.40;2.97;;;21.00;79.60;;;;;;6180343;23;20067;-76
2022/09/12 07:51:48;;;;;;;5.03;3.08;;;21.00;79.60;;;;;;6205400;23;20388;-75
2022/09/12 07:57:35;;;;;;;5.60;3.10;;;21.10;79.40;;;;;;6203624;23;20035;-75
2022/09/12 08:00:02;;;;;;;5.20;2.92;;;21.10;79.20;;;;;;6177887;23;20012;-76
2022/09/12 08:02:28;;;;;;;4.72;2.92;;;21.20;79.10;;;;;;6205718;23;20004;-75
2022/09/12 08:04:53;;;;;;;6.05;3.40;;;21.20;79.00;;;;;;6204780;23;20332;-78
2022/09/12 08:07:19;;;;;;;5.60;3.20;;;21.20;79.10;;;;;;6205838;23;20001;-75
2022/09/12 08:09:45;;;;;;;5.03;2.85;;;21.10;79.20;;;;;;6178571;23;20144;-76
2022/09/12 08:12:10;;;;;;;5.13;3.08;;;21.10;79.30;;;;;;6205346;23;20009;-74
2022/09/12 08:14:36;;;;;;;6.07;3.60;;;21.10;79.50;;;;;;6206141;23;20011;-75
2022/09/12 08:17:01;;;;;;;5.32;3.30;;;21.00;79.60;;;;;;6205596;23;20289;-75
2022/09/12 08:19:27;;;;;;;5.85;3.13;;;21.10;79.80;;;;;;6178561;23;20043;-77
2022/09/12 08:21:52;;;;;;;4.97;3.17;;;21.00;79.90;;;;;;6206260;23;20004;-75
2022/09/12 08:24:17;;;;;;;6.28;3.08;;;20.90;80.00;;;;;;6179445;23;20011;-74
2022/09/12 08:26:43;;;;;;;5.55;3.10;;;20.90;80.10;;;;;;6179388;23;20567;-75
2022/09/12 08:29:08;;;;;;;5.72;3.30;;;20.90;80.20;;;;;;6205217;23;20004;-77
2022/09/12 08:31:35;;;;;;;5.65;3.20;;;20.80;80.20;;;;;;6206137;23;20022;-75
2022/09/12 08:34:03;;;;;;;5.60;3.00;;;20.90;80.30;;;;;;6178537;23;20001;-75
2022/09/12 08:36:28;;;;;;;5.68;3.08;;;20.80;80.30;;;;;;6178512;23;20063;-74
2022/09/12 08:38:57;;;;;;;4.88;3.15;;;20.90;80.50;;;;;;6205115;23;20005;-75
2022/09/12 08:45:04;;;;;;;5.65;3.20;;;20.80;80.40;;;;;;6204587;23;20051;-76
2022/09/12 08:47:34;;;;;;;4.82;2.85;;;20.90;80.40;;;;;;6205583;23;20008;-76
2022/09/12 08:50:09;;;;;;;4.90;3.08;;;20.90;80.30;;;;;;6178361;23;20488;-76
2022/09/12 08:52:45;;;;;;;5.40;2.95;;;20.90;80.30;;;;;;6178846;23;20592;-76
2022/09/12 08:55:33;;;;;;;4.97;2.95;;;20.90;80.20;;;;;;6178746;23;20074;-75
2022/09/12 08:58:23;;;;;;;5.05;3.22;;;20.90;80.20;;;;;;6205665;23;20007;-75
2022/09/12 09:01:06;;;;;;;5.93;2.83;;;20.90;80.30;;;;;;6203845;23;20345;-74
2022/09/12 09:04:03;;;;;;;5.43;3.10;;;20.80;80.30;;;;;;6178686;23;20024;-76
2022/09/12 09:06:37;;;;;;;5.25;3.13;;;20.80;80.30;;;;;;6178989;23;20441;-75
2022/09/12 09:09:10;;;;;;;5.47;3.10;;;20.90;80.40;;;;;;6205029;23;20016;-76
2022/09/12 09:12:02;;;;;;;5.80;3.30;;;20.90;80.40;;;;;;6178858;23;20091;-75
2022/09/12 09:14:49;;;;;;;6.05;3.40;;;20.90;80.30;;;;;;6205208;23;20126;-74
2022/09/12 09:17:24;;;;;;;6.22;3.15;;;20.80;80.20;;;;;;6205408;23;20008;-75
2022/09/12 09:20:11;;;;;;;4.68;2.90;;;20.90;80.30;;;;;;6205214;23;20020;-75
2022/09/12 09:22:45;;;;;;;4.78;2.85;;;20.90;80.20;;;;;;6203662;23;20054;-75
2022/09/12 09:25:17;;;;;;;5.47;2.97;;;20.90;80.20;;;;;;6178674;23;20529;-75
2022/09/12 09:27:56;;;;;;;5.50;3.10;;;20.90;80.20;;;;;;6204924;23;20450;-75
2022/09/12 09:30:21;;;;;;;4.72;2.80;;;20.90;80.30;;;;;;6177798;23;20063;-75
2022/09/12 09:32:54;;;;;;;4.90;3.17;;;20.80;80.30;;;;;;6177409;23;20449;-76
2022/09/12 09:35:42;;;;;;;5.05;3.25;;;20.80;80.30;;;;;;6203281;23;20009;-75
2022/09/12 09:38:32;;;;;;;5.28;3.13;;;20.90;80.20;;;;;;6176468;23;20005;-76
2022/09/12 09:41:26;;;;;;;5.60;3.40;;;20.90;80.10;;;;;;6176171;23;20441;-75
2022/09/12 09:43:52;;;;;;;5.32;2.80;;;20.90;80.00;;;;;;6176200;23;20015;-75
2022/09/12 09:46:18;;;;;;;5.18;3.10;;;20.90;80.10;;;;;;6203363;23;20322;-76
2022/09/12 09:48:50;;;;;;;5.25;3.08;;;20.90;80.20;;;;;;6204399;23;20008;-75
2022/09/12 09:51:23;;;;;;;4.85;3.20;;;20.90;80.20;;;;;;6178024;23;20012;-76
2022/09/12 09:53:53;;;;;;;6.65;3.65;;;20.90;80.30;;;;;;6205082;23;20067;-76
2022/09/12 09:56:31;;;;;;;5.15;3.22;;;20.90;80.40;;;;;;6178651;23;20083;-76
2022/09/12 09:59:08;;;;;;;5.45;3.10;;;20.80;80.40;;;;;;6207741;23;20335;-75
2022/09/12 10:01:34;;;;;;;4.93;3.00;;;20.80;80.50;;;;;;6206201;23;20119;-76
2022/09/12 10:03:59;;;;;;;5.43;3.15;;;20.80;80.60;;;;;;6179506;23;20091;-75
2022/09/12 10:06:33;;;;;;;4.35;2.60;;;20.80;80.60;;;;;;6206206;23;20095;-75
2022/09/12 10:09:06;;;;;;;4.97;3.08;;;20.80;80.60;;;;;;6179074;23;20104;-75
2022/09/12 10:11:32;;;;;;;5.70;3.00;;;20.80;80.60;;;;;;6206117;23;20059;-75
2022/09/12 10:14:01;;;;;;;5.70;3.28;;;20.80;80.60;;;;;;6179408;23;20015;-75
2022/09/12 10:16:48;;;;;;;6.10;3.13;;;20.80;80.60;;;;;;6179274;23;20004;-75
2022/09/12 10:19:34;;;;;;;5.10;3.10;;;20.80;80.60;;;;;;6178709;23;20005;-74
2022/09/12 10:22:02;;;;;;;4.50;2.60;;;20.80;80.60;;;;;;6179186;23;20475;-74
2022/09/12 10:24:35;;;;;;;5.35;2.80;;;20.80;80.50;;;;;;6178679;23;20446;-74
2022/09/12 10:27:11;;;;;;;4.88;2.78;;;20.80;80.40;;;;;;6206436;23;20024;-75
2022/09/12 10:29:44;;;;;;;4.40;2.60;;;20.90;80.50;;;;;;6205674;23;20492;-76
2022/09/12 10:32:11;;;;;;;4.47;2.90;;;20.90;80.40;;;;;;6179858;23;20015;-75
2022/09/12 10:34:42;;;;;;;4.50;2.80;;;20.90;80.30;;;;;;6179582;23;20044;-76
2022/09/12 10:37:15;;;;;;;6.03;3.13;;;20.90;80.40;;;;;;6180104;23;20001;-76
2022/09/12 10:39:52;;;;;;;6.57;3.00;;;20.90;80.40;;;;;;6179487;23;20000;-77
2022/09/12 10:42:51;;;;;;;4.32;2.70;;;20.90;80.30;;;;;;6206185;23;20011;-76
2022/09/12 10:45:26;;;;;;;4.68;2.78;;;20.90;80.20;;;;;;6178496;23;20036;-77
2022/09/12 10:47:53;;;;;;;4.57;2.70;;;20.90;80.20;;;;;;6206205;23;20047;-77
2022/09/12 10:50:41;;;;;;;5.20;3.00;;;20.90;80.30;;;;;;6205695;23;20156;-74
2022/09/12 10:53:20;;;;;;;4.80;2.75;;;20.90;80.20;;;;;;6206614;23;20075;-74
2022/09/12 10:56:00;;;;;;;4.30;2.50;;;20.90;80.20;;;;;;6206173;23;20500;-75
2022/09/12 10:58:35;;;;;;;4.32;2.72;;;20.90;80.10;;;;;;6206312;23;20005;-76
2022/09/12 11:01:13;;;;;;;4.10;2.65;;;21.00;80.10;;;;;;6204866;23;20008;-75
2022/09/12 11:04:12;;;;;;;4.20;2.45;;;21.00;80.00;;;;;;6179346;23;20012;-75
2022/09/12 11:07:02;;;;;;;4.57;2.78;;;21.00;80.00;;;;;;6202156;23;20004;-76
2022/09/12 11:09:45;;;;;;;5.53;2.80;;;21.20;80.00;;;;;;6203242;23;20015;-74
2022/09/12 11:12:38;;;;;;;5.18;2.83;;;21.10;79.80;;;;;;6203547;23;20090;-76
2022/09/12 11:15:26;;;;;;;4.32;2.65;;;21.10;80.20;;;;;;6177406;23;20007;-77
2022/09/12 11:18:31;;;;;;;4.35;2.63;;;21.20;79.50;;;;;;6177190;23;20005;-75
2022/09/12 11:21:27;;;;;;;4.43;2.58;;;21.20;79.30;;;;;;6178251;23;20017;-75
2022/09/12 11:24:32;;;;;;;3.95;2.30;;;21.30;79.20;;;;;;6205916;23;20095;-76
2022/09/12 11:27:12;;;;;;;3.97;2.30;;;21.30;79.10;;;;;;6179224;23;20058;-75
2022/09/12 11:29:51;;;;;;;5.05;2.70;;;21.30;79.20;;;;;;6178845;23;20009;-74
2022/09/12 11:32:23;;;;;;;5.05;3.10;;;21.30;79.30;;;;;;6178876;23;20063;-76
2022/09/12 11:35:10;;;;;;;4.30;2.60;;;21.20;79.30;;;;;;6179028;23;20004;-74
2022/09/12 11:38:14;;;;;;;4.35;2.45;;;21.30;79.30;;;;;;6205598;23;20465;-75
2022/09/12 11:40:42;;;;;;;4.82;2.70;;;21.30;79.30;;;;;;6205161;23;20480;-75
2022/09/12 11:43:27;;;;;;;4.78;2.83;;;21.30;79.30;;;;;;6204122;23;20019;-74
2022/09/12 11:45:53;;;;;;;4.97;2.88;;;21.30;79.30;;;;;;6178818;23;20090;-74
2022/09/12 11:48:37;;;;;;;4.22;2.70;;;21.30;79.30;;;;;;6205970;23;20337;-74
2022/09/12 11:51:05;;;;;;;4.68;2.67;;;21.30;79.40;;;;;;6179002;23;20357;-74
2022/09/12 11:53:37;;;;;;;4.38;2.65;;;21.30;79.40;;;;;;6205537;23;20496;-75
2022/09/12 11:56:17;;;;;;;4.40;2.55;;;21.30;79.40;;;;;;6205609;23;20015;-75
2022/09/12 11:58:49;;;;;;;4.10;2.50;;;21.30;79.40;;;;;;6178592;23;20397;-74
2022/09/12 12:01:20;;;;;;;4.03;2.40;;;21.30;79.40;;;;;;6178895;23;20016;-75
2022/09/12 12:03:47;;;;;;;4.35;2.67;;;21.30;79.30;;;;;;6179044;23;20008;-74
2022/09/12 12:06:20;;;;;;;4.32;2.50;;;21.30;79.20;;;;;;6205854;23;20096;-75
2022/09/12 12:08:46;;;;;;;4.75;2.60;;;21.40;79.10;;;;;;6205386;23;20080;-74
2022/09/12 12:11:15;;;;;;;4.95;2.88;;;21.40;79.10;;;;;;6178607;23;20294;-76
2022/09/12 12:14:06;;;;;;;4.38;2.75;;;21.40;79.00;;;;;;6178702;23;20009;-77
2022/09/12 12:16:39;;;;;;;4.63;2.58;;;21.40;78.90;;;;;;6204799;23;20430;-75
2022/09/12 12:19:14;;;;;;;4.22;2.53;;;21.40;79.00;;;;;;6204765;23;20120;-75
2022/09/12 12:21:43;;;;;;;3.80;2.45;;;21.40;79.10;;;;;;6205170;23;20001;-74
2022/09/12 12:24:11;;;;;;;3.90;2.42;;;21.40;79.20;;;;;;6205275;23;20005;-78
2022/09/12 12:26:40;;;;;;;4.50;2.58;;;21.40;79.30;;;;;;6205171;23;20016;-74
2022/09/12 12:29:15;;;;;;;3.33;2.22;;;21.30;79.30;;;;;;6177913;23;20012;-75
2022/09/12 12:32:00;;;;;;;4.15;2.42;;;21.30;79.30;;;;;;6178723;23;20009;-75
2022/09/12 12:34:29;;;;;;;4.93;2.65;;;21.30;79.30;;;;;;6203474;23;20004;-77
2022/09/12 12:36:55;;;;;;;4.50;2.60;;;21.30;79.40;;;;;;6205172;23;20138;-75
2022/09/12 12:39:33;;;;;;;4.50;2.45;;;21.30;79.50;;;;;;6204653;23;20063;-75
2022/09/12 12:42:02;;;;;;;4.80;2.45;;;21.30;79.50;;;;;;6178227;23;20001;-75
2022/09/12 12:44:43;;;;;;;5.07;2.40;;;21.20;79.50;;;;;;6205057;23;20445;-76
2022/09/12 12:47:30;;;;;;;3.88;2.30;;;21.30;79.60;;;;;;6205125;23;20276;-75
2022/09/12 12:50:00;;;;;;;4.50;2.40;;;21.30;79.60;;;;;;6178189;23;20024;-76
2022/09/12 12:52:30;;;;;;;4.13;2.50;;;21.30;79.60;;;;;;6205284;23;20319;-75
2022/09/12 12:54:59;;;;;;;5.00;2.60;;;21.30;79.50;;;;;;6205321;23;20438;-75
2022/09/12 12:57:39;;;;;;;3.97;2.38;;;21.30;79.50;;;;;;6205013;23;20326;-75
2022/09/12 13:00:26;;;;;;;3.40;2.10;;;21.30;79.40;;;;;;6204854;23;20012;-75
2022/09/12 13:03:26;;;;;;;4.25;2.13;;;21.30;79.30;;;;;;6178364;23;20013;-75
2022/09/12 13:05:59;;;;;;;4.15;2.40;;;21.30;79.30;;;;;;6204830;23;20013;-75
2022/09/12 13:08:31;;;;;;;4.38;2.50;;;21.30;79.40;;;;;;6205030;23;20349;-76
2022/09/12 13:11:22;;;;;;;3.90;2.47;;;21.30;79.50;;;;;;6177910;23;20062;-75
2022/09/12 13:13:50;;;;;;;4.55;2.50;;;21.30;79.60;;;;;;6167649;23;20429;-75
2022/09/12 13:16:35;;;;;;;3.95;2.40;;;21.30;79.70;;;;;;6178360;23;20030;-75
2022/09/12 13:19:12;;;;;;;4.75;2.50;;;21.20;79.70;;;;;;6177956;23;20011;-76
2022/09/12 13:21:38;;;;;;;4.22;2.22;;;21.20;79.80;;;;;;6204106;23;20075;-77
2022/09/12 13:24:05;;;;;;;4.15;2.50;;;21.20;79.90;;;;;;6177863;23;20434;-76
2022/09/12 13:26:42;;;;;;;3.45;2.20;;;21.20;79.90;;;;;;6202792;23;20008;-75
2022/09/12 13:29:20;;;;;;;4.25;2.30;;;21.20;80.00;;;;;;6178021;23;20008;-75
2022/09/12 13:31:50;;;;;;;4.18;2.35;;;21.20;80.00;;;;;;6176643;23;20112;-74
2022/09/12 13:34:30;;;;;;;3.92;2.33;;;21.10;80.00;;;;;;6206979;23;20005;-76
2022/09/12 13:37:26;;;;;;;4.28;2.60;;;21.10;80.20;;;;;;6178590;23;20462;-76
2022/09/12 13:40:04;;;;;;;3.75;2.40;;;21.10;80.30;;;;;;6205219;23;20020;-76
2022/09/12 13:42:49;;;;;;;3.90;2.25;;;21.10;80.30;;;;;;6206626;23;20336;-75